Terminal Aerodrome Forecast
Issued by NWS Wilmington, OH

Current Version | Previous Version | Graphics & Text | Print | Product List | Glossary On
Versions: 1 2 3 4 5 6 7 8 9 10 11 12 13 14 15 16 17 18 19
000
FTUS41 KILN 221100
TAFDAY
TAF
KDAY 221135Z 2212/2312 VRB03KT P6SM SKC
     FM221400 21007KT P6SM SCT040
     FM230000 23007KT P6SM SCT250
     FM230600 24007KT P6SM SCT100 BKN200
     FM231000 27007KT 5SM -SHRA BR VCTS OVC050CB=

USA.gov is the U.S. government's official web portal to all federal, state and local government web resources and services.